Time;durP1;ratioP1;P1;durP2;ratioP2;P2;SDS_P1;SDS_P2;PMS_P1;PMS_P2;Temp;Humidity;BMP_temperature;BMP_pressure;BME280_temperature;BME280_humidity;BME280_pressure;Samples;Min_cycle;Max_cycle;Signal;HPM_P1;HPM_P2
2022/01/25 00:31:10;;;;;;;10.32;3.95;;;24.60;22.60;;;;;;5070888;28;20454;-58
2022/01/25 00:33:39;;;;;;;7.65;1.77;;;24.50;22.70;;;;;;5038171;28;20160;-60
2022/01/25 00:36:09;;;;;;;14.85;1.95;;;24.30;23.10;;;;;;5036012;28;20454;-63
2022/01/25 00:38:36;;;;;;;21.63;2.60;;;24.10;23.30;;;;;;5036445;28;20077;-59
2022/01/25 00:41:03;;;;;;;25.17;11.70;;;24.00;23.80;;;;;;5066214;28;20090;-60
2022/01/25 00:43:30;;;;;;;10.23;2.20;;;23.90;23.10;;;;;;5055479;28;20069;-62
2022/01/25 00:46:00;;;;;;;20.65;9.85;;;23.70;23.50;;;;;;5070901;28;20535;-64
2022/01/25 00:53:56;;;;;;;14.13;6.60;;;23.20;24.10;;;;;;5055021;28;20099;-58
2022/01/25 00:56:31;;;;;;;14.05;5.80;;;23.00;24.00;;;;;;5037206;28;20574;-62
2022/01/25 00:59:04;;;;;;;13.73;4.32;;;22.80;24.20;;;;;;5071260;28;20078;-60
2022/01/25 01:01:32;;;;;;;11.60;4.13;;;22.60;24.70;;;;;;5019662;28;20081;-59
2022/01/25 01:03:58;;;;;;;12.00;4.32;;;22.50;25.10;;;;;;5050826;28;20544;-58
2022/01/25 01:06:26;;;;;;;18.52;4.05;;;22.30;25.40;;;;;;5051085;28;20125;-57
2022/01/25 01:08:53;;;;;;;23.73;5.10;;;22.10;25.90;;;;;;5053061;28;20134;-58
2022/01/25 01:11:28;;;;;;;33.50;5.50;;;21.90;26.20;;;;;;5069818;28;20578;-57
2022/01/25 01:16:45;;;;;;;36.25;6.25;;;21.60;27.10;;;;;;5067324;28;20565;-61
2022/01/25 01:35:50;;;;;;;33.05;21.23;;;20.50;29.30;;;;;;5067483;28;20065;-58
2022/01/25 01:43:52;;;;;;;55.50;15.05;;;20.20;29.90;;;;;;5051477;28;20558;-56
2022/01/25 01:51:28;;;;;;;93.53;13.82;;;19.90;30.80;;;;;;5065853;28;20110;-58
2022/01/25 01:54:15;;;;;;;105.32;12.48;;;19.80;30.70;;;;;;5050517;28;20069;-59
2022/01/25 01:56:43;;;;;;;54.45;10.02;;;19.70;30.80;;;;;;5047088;28;20076;-61
2022/01/25 01:59:16;;;;;;;49.72;7.95;;;19.50;30.80;;;;;;5046871;28;20566;-59
2022/01/25 02:01:45;;;;;;;46.45;7.90;;;19.40;30.60;;;;;;5046048;28;20585;-61
2022/01/25 02:04:14;;;;;;;39.13;7.32;;;19.30;30.90;;;;;;5062711;28;20068;-59
2022/01/25 02:06:41;;;;;;;41.28;7.57;;;19.30;32.00;;;;;;5064034;28;20180;-61
2022/01/25 02:09:09;;;;;;;37.92;7.43;;;19.20;31.70;;;;;;5035606;28;20077;-64
2022/01/25 02:11:37;;;;;;;36.70;7.18;;;19.10;32.20;;;;;;5032292;28;20136;-58
2022/01/25 02:14:08;;;;;;;33.70;6.20;;;19.00;32.10;;;;;;5046678;28;20085;-61
2022/01/25 02:16:54;;;;;;;42.00;6.75;;;18.90;32.10;;;;;;5031167;28;20093;-60
2022/01/25 02:22:30;;;;;;;39.88;6.72;;;18.80;33.30;;;;;;5062275;28;20466;-62
2022/01/25 02:24:58;;;;;;;47.50;7.93;;;18.70;33.50;;;;;;5045361;28;20129;-65
2022/01/25 02:27:24;;;;;;;45.40;8.07;;;18.60;32.90;;;;;;5046716;28;20591;-60
2022/01/25 02:29:51;;;;;;;49.63;8.65;;;18.60;33.50;;;;;;5046328;28;20128;-64
2022/01/25 02:32:18;;;;;;;80.00;9.68;;;18.50;33.90;;;;;;5050374;28;20154;-61
2022/01/25 02:34:45;;;;;;;55.40;10.65;;;18.50;33.50;;;;;;5046624;28;20078;-57
2022/01/25 02:37:14;;;;;;;66.47;9.80;;;18.40;33.90;;;;;;5014812;28;20085;-58
2022/01/25 02:39:42;;;;;;;64.05;11.02;;;18.30;34.40;;;;;;5046862;28;20108;-61
2022/01/25 02:42:11;;;;;;;63.38;11.63;;;18.30;34.60;;;;;;5046280;28;20438;-60
2022/01/25 02:44:38;;;;;;;88.53;13.18;;;18.20;34.30;;;;;;5044196;28;20098;-59
2022/01/25 02:49:50;;;;;;;97.80;13.57;;;18.00;33.70;;;;;;5058838;28;20122;-61
2022/01/25 02:52:16;;;;;;;97.78;14.38;;;17.90;33.80;;;;;;5047749;28;20454;-62
2022/01/25 02:54:43;;;;;;;103.60;14.60;;;18.00;34.30;;;;;;5064541;28;20081;-59
2022/01/25 02:57:09;;;;;;;;;;;17.90;34.40;;;;;;5030341;28;20082;-62
2022/01/25 02:59:35;;;;;;;91.40;15.27;;;17.80;34.50;;;;;;5048999;28;19957;-60
2022/01/25 03:02:02;;;;;;;98.78;15.00;;;17.80;34.90;;;;;;5030038;28;20515;-60
2022/01/25 03:04:29;;;;;;;117.32;16.23;;;17.80;34.70;;;;;;5045029;28;20089;-61
2022/01/25 03:06:55;;;;;;;83.88;15.48;;;17.70;34.80;;;;;;5060594;28;20093;-62
2022/01/25 03:09:22;;;;;;;113.05;15.43;;;17.70;35.10;;;;;;5045315;28;20112;-59
2022/01/25 03:11:51;;;;;;;103.63;14.90;;;17.70;35.30;;;;;;5034671;28;20208;-62
2022/01/25 03:14:20;;;;;;;108.55;14.18;;;17.60;36.00;;;;;;5042584;28;20530;-60
2022/01/25 03:17:11;;;;;;;94.93;14.07;;;17.60;35.80;;;;;;5060967;28;20563;-61
2022/01/25 03:22:13;;;;;;;100.35;14.00;;;17.60;36.60;;;;;;5061972;28;20427;-60
2022/01/25 03:24:39;;;;;;;102.38;14.73;;;17.50;36.50;;;;;;5046778;28;20127;-58
2022/01/25 03:27:06;;;;;;;113.28;14.85;;;17.50;36.50;;;;;;5027555;28;20550;-64
2022/01/25 03:29:32;;;;;;;94.80;15.00;;;17.40;36.50;;;;;;5027841;28;20126;-61
2022/01/25 03:31:58;;;;;;;;;;;17.30;36.60;;;;;;5046051;28;20495;-60
2022/01/25 03:34:25;;;;;;;95.53;14.23;;;17.30;36.60;;;;;;5065568;28;19967;-61
2022/01/25 03:36:51;;;;;;;105.55;14.65;;;17.20;36.90;;;;;;5062720;28;20091;-65
2022/01/25 03:39:18;;;;;;;82.47;14.25;;;17.20;37.00;;;;;;5043719;28;20074;-60
2022/01/25 03:41:44;;;;;;;;;;;17.20;37.40;;;;;;5032118;28;20108;-62
2022/01/25 03:44:10;;;;;;;83.22;14.15;;;17.10;36.90;;;;;;5064531;28;20400;-64
2022/01/25 03:52:01;;;;;;;50.95;11.50;;;17.10;37.40;;;;;;5064487;28;20104;-61
2022/01/25 03:54:27;;;;;;;55.40;12.50;;;17.00;37.90;;;;;;5046562;28;20130;-62
2022/01/25 03:56:53;;;;;;;;;;;16.90;37.30;;;;;;5045626;28;20069;-63
2022/01/25 03:59:22;;;;;;;54.63;12.85;;;16.90;37.50;;;;;;5063504;28;20004;-63
2022/01/25 04:01:49;;;;;;;71.95;14.25;;;16.80;37.80;;;;;;5026870;28;20115;-61
2022/01/25 04:04:19;;;;;;;63.58;13.50;;;16.80;37.80;;;;;;5043226;28;20567;-61
2022/01/25 04:06:50;;;;;;;61.47;14.93;;;16.80;37.90;;;;;;5027048;28;20089;-61
2022/01/25 04:09:17;;;;;;;74.85;15.38;;;16.70;38.00;;;;;;5062062;28;20103;-61
2022/01/25 04:11:44;;;;;;;73.13;14.27;;;16.70;38.10;;;;;;5062115;28;20116;-61
2022/01/25 04:14:13;;;;;;;65.10;14.52;;;16.60;38.40;;;;;;5032056;28;20077;-63
2022/01/25 04:16:56;;;;;;;92.85;15.55;;;16.50;38.50;;;;;;5044444;28;20072;-60
2022/01/25 04:19:33;;;;;;;72.05;15.13;;;16.50;38.60;;;;;;5044782;28;20531;-60
2022/01/25 04:27:25;;;;;;;58.05;14.65;;;16.50;39.10;;;;;;5059814;28;20068;-63
2022/01/25 04:29:53;;;;;;;64.03;15.02;;;16.50;39.30;;;;;;5026982;28;20452;-62
2022/01/25 04:32:34;;;;;;;65.25;14.57;;;16.30;39.40;;;;;;5041183;28;20138;-59
2022/01/25 04:51:46;;;;;;;79.43;16.33;;;15.90;41.00;;;;;;5049659;28;20119;-60
2022/01/25 04:54:40;;;;;;;82.50;16.95;;;15.90;41.70;;;;;;5036699;28;20069;-63
2022/01/25 04:57:20;;;;;;;94.15;17.58;;;15.90;42.00;;;;;;5050357;28;20454;-64
2022/01/25 05:00:04;;;;;;;83.65;17.67;;;16.00;42.40;;;;;;5046676;28;20077;-63
2022/01/25 05:03:49;;;;;;;98.63;18.17;;;15.80;42.20;;;;;;5045545;28;20442;-61
2022/01/25 05:05:32;;;;;;;66.55;15.77;;;15.90;42.80;;;;;;5035317;28;20102;-61
2022/01/25 05:10:31;;;;;;;96.63;17.48;;;15.80;42.70;;;;;;5066148;28;20649;-60
2022/01/25 05:13:19;;;;;;;67.50;15.32;;;15.70;43.10;;;;;;5049224;28;20134;-60
2022/01/25 05:18:18;;;;;;;77.35;18.40;;;15.60;42.60;;;;;;5065113;28;20523;-58
2022/01/25 05:23:30;;;;;;;119.40;19.70;;;15.60;43.10;;;;;;5051898;28;20096;-57
2022/01/25 05:25:56;;;;;;;96.53;17.70;;;15.50;43.40;;;;;;5046524;28;20616;-63
2022/01/25 05:28:22;;;;;;;;;;;15.60;44.30;;;;;;5047061;28;20085;-61
2022/01/25 05:30:49;;;;;;;85.55;17.08;;;15.50;44.20;;;;;;5045804;28;19987;-64
2022/01/25 05:33:15;;;;;;;96.90;17.65;;;15.50;44.30;;;;;;5049037;28;20482;-62
2022/01/25 05:35:41;;;;;;;;;;;15.40;43.90;;;;;;5052360;28;20107;-64
2022/01/25 05:38:08;;;;;;;82.05;20.77;;;15.20;44.30;;;;;;5046472;28;19992;-62
2022/01/25 05:40:44;;;;;;;;;;;15.20;44.40;;;;;;5048394;28;20499;-66
2022/01/25 05:48:21;;;;;;;98.85;20.30;;;15.10;45.50;;;;;;5065180;28;20189;-57
2022/01/25 05:50:48;;;;;;;73.63;19.42;;;15.20;45.80;;;;;;5046471;28;20093;-59
2022/01/25 05:53:14;;;;;;;;;;;15.10;45.10;;;;;;5069465;28;20077;-61
2022/01/25 05:55:40;;;;;;;97.35;20.05;;;15.00;44.70;;;;;;5064815;28;19964;-61
2022/01/25 05:58:06;;;;;;;;;;;14.90;44.90;;;;;;5032065;28;20065;-58
2022/01/25 06:00:33;;;;;;;69.47;17.85;;;14.90;45.30;;;;;;5030480;28;19964;-65
2022/01/25 06:02:59;;;;;;;;;;;15.00;45.50;;;;;;5045191;28;20077;-57
2022/01/25 06:05:25;;;;;;;66.35;19.48;;;14.90;46.00;;;;;;5044691;28;20446;-61
2022/01/25 06:07:52;;;;;;;77.25;20.75;;;14.90;46.00;;;;;;5043257;28;20575;-61
2022/01/25 06:10:19;;;;;;;78.35;21.50;;;14.80;45.90;;;;;;5016956;28;20089;-63
2022/01/25 06:12:46;;;;;;;94.45;24.33;;;14.80;46.40;;;;;;5049804;28;20118;-60
2022/01/25 06:15:13;;;;;;;93.13;23.95;;;14.80;45.80;;;;;;5047061;28;20112;-61
2022/01/25 06:17:40;;;;;;;100.82;24.92;;;14.70;45.70;;;;;;5031672;28;20108;-64
2022/01/25 06:20:07;;;;;;;101.65;28.33;;;14.60;46.30;;;;;;5046150;28;20104;-64
2022/01/25 06:22:34;;;;;;;111.50;28.45;;;14.70;46.80;;;;;;5047444;28;20084;-63
2022/01/25 06:25:00;;;;;;;123.65;27.88;;;14.70;46.20;;;;;;5031302;28;20073;-60
2022/01/25 06:27:26;;;;;;;;;;;14.70;46.10;;;;;;5064027;28;20157;-57
2022/01/25 06:29:53;;;;;;;97.50;29.00;;;14.60;46.00;;;;;;5047025;28;19973;-64
2022/01/25 06:32:20;;;;;;;;;;;14.50;45.60;;;;;;5065047;28;20088;-65
2022/01/25 06:34:47;;;;;;;106.97;29.20;;;14.50;45.90;;;;;;5047895;28;19979;-61
2022/01/25 06:37:13;;;;;;;92.18;28.13;;;14.40;46.40;;;;;;5064882;28;20081;-58
2022/01/25 06:39:41;;;;;;;111.38;27.75;;;14.40;46.00;;;;;;5045043;28;20431;-60
2022/01/25 06:42:08;;;;;;;96.35;27.70;;;14.40;46.20;;;;;;5061329;28;20073;-63
2022/01/25 06:44:37;;;;;;;102.70;27.67;;;14.40;46.10;;;;;;5028606;28;20095;-60
2022/01/25 06:47:04;;;;;;;113.60;29.95;;;14.40;46.10;;;;;;5029547;28;20168;-60
2022/01/25 06:49:30;;;;;;;102.53;29.27;;;14.30;46.20;;;;;;5045757;28;20069;-64
2022/01/25 06:51:58;;;;;;;;;;;14.30;46.50;;;;;;5046334;28;20085;-55
2022/01/25 06:54:24;;;;;;;103.22;30.38;;;14.30;46.50;;;;;;5049360;28;19961;-59
2022/01/25 06:56:50;;;;;;;;;;;14.20;45.80;;;;;;5046866;28;20158;-58
2022/01/25 06:59:16;;;;;;;129.82;29.63;;;14.20;46.00;;;;;;5046880;28;20015;-61
2022/01/25 07:01:43;;;;;;;;;;;14.30;46.30;;;;;;5058902;28;20147;-64
2022/01/25 07:04:09;;;;;;;98.35;27.58;;;14.20;45.80;;;;;;5039559;28;20528;-60
2022/01/25 07:06:35;;;;;;;;;;;14.20;45.70;;;;;;5057726;28;20383;-62
2022/01/25 07:09:02;;;;;;;92.90;28.35;;;14.20;45.60;;;;;;5040137;28;19979;-59
2022/01/25 07:11:29;;;;;;;99.22;27.13;;;14.10;45.80;;;;;;5041745;28;20156;-62
2022/01/25 07:13:56;;;;;;;107.88;28.77;;;14.00;45.70;;;;;;5064536;28;20214;-60
2022/01/25 07:16:24;;;;;;;112.25;31.80;;;14.10;46.10;;;;;;5023012;28;20161;-59
2022/01/25 07:18:50;;;;;;;109.55;30.55;;;14.10;46.40;;;;;;5057839;28;20531;-58
2022/01/25 07:21:17;;;;;;;;;;;14.10;46.10;;;;;;5042350;28;20081;-62
2022/01/25 07:23:43;;;;;;;97.90;26.75;;;13.90;46.00;;;;;;5061783;28;19977;-60
2022/01/25 07:26:09;;;;;;;;;;;14.00;45.90;;;;;;5041527;28;20070;-60
2022/01/25 07:28:36;;;;;;;91.15;24.23;;;13.90;45.90;;;;;;5058659;28;20487;-63
2022/01/25 07:31:03;;;;;;;89.90;24.38;;;13.80;45.70;;;;;;5039903;28;20922;-61
2022/01/25 07:33:30;;;;;;;105.45;27.20;;;13.80;46.00;;;;;;5055660;28;20066;-61
2022/01/25 07:35:56;;;;;;;;;;;13.80;46.50;;;;;;5039388;28;20074;-59
2022/01/25 07:38:22;;;;;;;93.72;23.70;;;13.90;46.50;;;;;;5037457;28;19969;-59
2022/01/25 07:40:49;;;;;;;97.50;25.45;;;13.90;46.80;;;;;;5057971;28;20097;-61
2022/01/25 07:43:16;;;;;;;102.43;24.35;;;13.70;46.30;;;;;;5044264;28;20470;-64
2022/01/25 07:45:42;;;;;;;;;;;13.60;46.40;;;;;;5042509;28;20543;-60
2022/01/25 07:48:11;;;;;;;98.70;24.93;;;13.60;46.90;;;;;;5057666;28;19969;-60
2022/01/25 07:50:38;;;;;;;91.35;25.00;;;13.60;47.10;;;;;;5057750;28;20093;-57
2022/01/25 07:53:05;;;;;;;100.32;24.85;;;13.60;47.20;;;;;;5037646;28;20104;-59
2022/01/25 07:55:31;;;;;;;84.47;24.20;;;13.50;47.40;;;;;;5060390;28;20069;-60
2022/01/25 07:57:58;;;;;;;92.03;24.98;;;13.50;47.60;;;;;;5058718;28;20084;-60
2022/01/25 08:00:24;;;;;;;;;;;13.60;47.50;;;;;;5060716;28;20085;-60
2022/01/25 08:02:51;;;;;;;84.10;23.48;;;13.60;47.20;;;;;;5039812;28;20403;-59
2022/01/25 08:05:19;;;;;;;124.25;24.90;;;13.50;47.20;;;;;;5058123;28;20082;-62
2022/01/25 08:07:45;;;;;;;96.80;24.33;;;13.40;47.60;;;;;;5038925;28;20074;-59
2022/01/25 08:10:11;;;;;;;;;;;13.40;47.60;;;;;;5041203;28;20192;-60
2022/01/25 08:12:39;;;;;;;88.75;23.50;;;13.20;47.70;;;;;;5039791;28;20060;-60
2022/01/25 08:15:07;;;;;;;93.72;23.60;;;13.20;47.80;;;;;;5040462;28;20104;-60
2022/01/25 08:17:33;;;;;;;86.72;25.30;;;13.20;47.80;;;;;;5039379;28;20076;-55
2022/01/25 08:20:00;;;;;;;99.75;24.90;;;13.10;48.10;;;;;;5025253;28;20078;-63
2022/01/25 08:22:26;;;;;;;;;;;13.10;48.70;;;;;;5021975;28;20079;-60
2022/01/25 08:24:53;;;;;;;89.47;23.00;;;13.20;48.90;;;;;;5045716;28;20018;-59
2022/01/25 08:27:22;;;;;;;101.55;24.77;;;13.20;48.70;;;;;;5047277;28;20550;-64
2022/01/25 08:29:49;;;;;;;90.80;24.40;;;13.20;48.90;;;;;;5061681;28;20101;-60
2022/01/25 08:32:16;;;;;;;96.10;24.02;;;13.30;48.50;;;;;;5042501;28;20522;-60
2022/01/25 08:34:42;;;;;;;;;;;13.20;48.30;;;;;;5061853;28;20063;-59
2022/01/25 08:37:09;;;;;;;79.47;23.10;;;13.20;48.40;;;;;;5062106;28;19971;-62
2022/01/25 08:39:35;;;;;;;89.78;23.35;;;13.10;48.40;;;;;;5043372;28;20105;-59
2022/01/25 08:42:01;;;;;;;;;;;12.90;48.40;;;;;;5028216;28;20077;-61
2022/01/25 08:44:28;;;;;;;67.97;21.55;;;12.90;48.40;;;;;;5044703;28;19957;-59
2022/01/25 08:46:54;;;;;;;;;;;12.80;48.50;;;;;;5044550;28;20069;-58
2022/01/25 08:49:21;;;;;;;83.85;24.15;;;12.90;49.00;;;;;;5044940;28;19957;-58
2022/01/25 08:51:51;;;;;;;69.22;24.15;;;12.90;48.50;;;;;;5043964;28;20096;-60
2022/01/25 08:54:17;;;;;;;69.13;21.88;;;12.80;48.90;;;;;;5064234;28;20089;-57
2022/01/25 08:56:44;;;;;;;72.20;22.60;;;12.80;49.20;;;;;;5028754;28;20122;-59
2022/01/25 08:59:12;;;;;;;73.85;21.30;;;12.70;48.90;;;;;;5058359;28;20065;-58
2022/01/25 09:01:39;;;;;;;58.40;20.30;;;12.60;49.50;;;;;;5040304;28;20102;-55
2022/01/25 09:04:05;;;;;;;61.10;19.85;;;12.70;49.40;;;;;;5027548;28;20515;-58
2022/01/25 09:06:33;;;;;;;;;;;12.60;49.20;;;;;;5012089;28;20612;-57
2022/01/25 09:09:09;;;;;;;71.75;21.23;;;12.60;49.50;;;;;;5028281;28;19957;-57
2022/01/25 09:11:41;;;;;;;60.03;20.20;;;12.60;48.90;;;;;;5045521;28;20439;-58
2022/01/25 09:14:08;;;;;;;70.82;23.05;;;12.60;49.30;;;;;;5046454;28;20089;-57
2022/01/25 09:16:36;;;;;;;65.78;23.27;;;12.60;49.00;;;;;;5043876;28;20103;-59
2022/01/25 09:19:03;;;;;;;84.40;25.30;;;12.50;49.10;;;;;;5040927;28;20210;-58
2022/01/25 09:21:29;;;;;;;70.35;23.02;;;12.50;49.20;;;;;;5040711;28;20168;-62
2022/01/25 09:23:55;;;;;;;;;;;12.50;49.20;;;;;;5046671;28;20084;-59
2022/01/25 09:26:23;;;;;;;76.25;22.55;;;12.50;49.50;;;;;;5042248;28;19965;-61
2022/01/25 09:28:53;;;;;;;69.75;24.45;;;12.50;50.00;;;;;;5062228;28;20109;-61
2022/01/25 09:31:19;;;;;;;69.68;22.55;;;12.50;50.30;;;;;;5040806;28;20242;-58
2022/01/25 09:33:45;;;;;;;;;;;12.40;49.70;;;;;;5025672;28;20073;-57
2022/01/25 09:36:12;;;;;;;66.25;22.05;;;12.40;49.40;;;;;;5043653;28;20059;-61
2022/01/25 09:38:38;;;;;;;;;;;12.40;49.30;;;;;;5041305;28;20098;-57
2022/01/25 09:41:04;;;;;;;71.97;21.48;;;12.40;49.30;;;;;;5043090;28;20043;-57
2022/01/25 09:43:31;;;;;;;;;;;12.30;49.10;;;;;;5024507;28;20102;-60
2022/01/25 09:45:57;;;;;;;77.30;25.10;;;12.20;49.30;;;;;;5040046;28;19995;-61
2022/01/25 09:48:24;;;;;;;85.22;26.13;;;12.10;49.20;;;;;;5043427;28;20085;-59
2022/01/25 09:50:51;;;;;;;83.22;24.10;;;12.00;49.40;;;;;;5059664;28;20136;-61
2022/01/25 09:53:18;;;;;;;70.88;22.85;;;12.00;49.50;;;;;;5030256;28;20100;-58
2022/01/25 09:55:45;;;;;;;75.05;24.80;;;12.00;49.50;;;;;;5061023;28;20076;-61
2022/01/25 09:58:14;;;;;;;84.53;23.77;;;12.00;49.50;;;;;;5038886;28;20077;-61
2022/01/25 10:00:42;;;;;;;73.95;23.20;;;12.00;49.70;;;;;;5039556;28;20073;-58
2022/01/25 10:03:20;;;;;;;76.25;22.92;;;12.10;50.20;;;;;;5026090;28;20069;-59
2022/01/25 10:05:49;;;;;;;65.43;22.25;;;12.10;49.70;;;;;;5028348;28;20100;-61
2022/01/25 10:08:25;;;;;;;82.35;23.65;;;12.10;49.70;;;;;;5027664;28;20089;-55
2022/01/25 10:10:55;;;;;;;68.57;22.67;;;12.00;49.70;;;;;;5041856;28;20104;-63
2022/01/25 10:13:30;;;;;;;71.72;21.40;;;12.00;49.70;;;;;;5040107;28;20100;-57
2022/01/25 10:16:17;;;;;;;72.13;21.30;;;12.10;49.90;;;;;;5044100;28;20072;-57
2022/01/25 10:18:49;;;;;;;75.63;21.83;;;11.90;49.90;;;;;;5040309;28;20073;-56
2022/01/25 10:21:27;;;;;;;63.75;20.58;;;11.70;50.20;;;;;;5040810;28;20093;-56
2022/01/25 10:24:12;;;;;;;72.65;20.73;;;11.70;50.40;;;;;;5029226;28;20130;-57
2022/01/25 10:27:02;;;;;;;70.38;19.73;;;11.70;50.40;;;;;;5041719;28;21225;-57
2022/01/25 10:29:31;;;;;;;66.50;19.73;;;11.60;50.40;;;;;;5029336;28;20107;-57
2022/01/25 10:32:02;;;;;;;50.65;19.33;;;11.70;51.30;;;;;;5042080;28;20434;-60
2022/01/25 10:34:43;;;;;;;57.92;19.90;;;11.70;50.20;;;;;;5029544;28;20409;-58
2022/01/25 10:37:28;;;;;;;68.75;20.10;;;11.60;50.20;;;;;;5040334;28;20091;-56
2022/01/25 10:39:55;;;;;;;60.08;20.20;;;11.50;49.90;;;;;;5043269;28;20070;-56
2022/01/25 10:42:24;;;;;;;66.13;20.25;;;11.50;51.00;;;;;;5009275;28;20168;-57
2022/01/25 10:45:04;;;;;;;68.75;20.73;;;11.60;51.20;;;;;;5040814;28;20438;-56
2022/01/25 10:47:50;;;;;;;62.40;20.58;;;11.50;51.20;;;;;;5024438;28;20077;-56
2022/01/25 10:50:31;;;;;;;56.65;20.08;;;11.40;51.00;;;;;;5039795;28;20501;-56
2022/01/25 10:53:17;;;;;;;60.92;22.08;;;11.50;51.30;;;;;;5040517;28;20069;-59
2022/01/25 10:55:46;;;;;;;91.00;41.25;;;11.50;50.90;;;;;;5025587;28;20461;-57
2022/01/25 10:58:14;;;;;;;103.07;50.08;;;11.50;50.90;;;;;;5024658;28;20066;-58
2022/01/25 11:00:45;;;;;;;103.85;45.35;;;11.40;51.00;;;;;;5043002;28;20171;-61
2022/01/25 11:03:23;;;;;;;85.95;35.88;;;11.40;51.20;;;;;;5023674;28;20089;-56
2022/01/25 11:05:50;;;;;;;71.65;26.80;;;11.40;51.10;;;;;;5056898;28;20093;-60
2022/01/25 11:08:18;;;;;;;;;;;11.50;51.00;;;;;;5026788;28;20208;-60
2022/01/25 11:10:51;;;;;;;47.58;18.65;;;11.50;51.20;;;;;;5040960;28;20460;-59
2022/01/25 11:13:35;;;;;;;56.83;18.02;;;11.50;51.50;;;;;;5042718;28;20078;-56
2022/01/25 11:16:05;;;;;;;57.40;18.08;;;11.60;51.40;;;;;;5058388;28;20171;-55
2022/01/25 11:18:32;;;;;;;53.88;18.17;;;11.50;51.50;;;;;;5040882;28;20103;-57
2022/01/25 11:21:01;;;;;;;53.15;18.50;;;11.40;52.50;;;;;;5039680;28;20616;-59
2022/01/25 11:23:32;;;;;;;45.05;17.65;;;11.50;52.50;;;;;;5043588;28;20184;-56
2022/01/25 11:26:02;;;;;;;47.75;18.00;;;11.40;52.80;;;;;;5022248;28;20085;-60
2022/01/25 11:28:31;;;;;;;47.80;17.13;;;11.40;53.40;;;;;;5026769;28;20592;-59
2022/01/25 11:31:00;;;;;;;45.90;17.33;;;11.30;53.70;;;;;;5038169;28;20168;-58
2022/01/25 11:33:29;;;;;;;51.65;15.70;;;11.30;54.10;;;;;;5008209;28;20069;-57
2022/01/25 11:35:56;;;;;;;41.35;15.27;;;11.40;54.70;;;;;;5058360;28;20686;-56
2022/01/25 11:38:50;;;;;;;43.22;15.77;;;11.40;55.00;;;;;;5058242;28;20151;-58
2022/01/25 11:41:21;;;;;;;48.88;17.20;;;11.50;55.40;;;;;;5022471;28;20167;-59
2022/01/25 11:44:26;;;;;;;39.55;16.58;;;11.40;55.70;;;;;;5039288;28;20535;-60
2022/01/25 11:47:12;;;;;;;35.10;15.68;;;11.30;56.30;;;;;;4949858;28;20538;-58
2022/01/25 11:50:00;;;;;;;36.55;14.50;;;11.20;57.20;;;;;;4965401;28;20087;-57
2022/01/25 11:52:29;;;;;;;39.20;14.90;;;11.10;57.90;;;;;;4934488;28;20118;-59
2022/01/25 11:55:25;;;;;;;41.90;16.02;;;11.20;58.20;;;;;;4950274;28;20082;-56
2022/01/25 11:57:57;;;;;;;48.78;14.90;;;11.20;58.30;;;;;;4949592;28;20118;-53
2022/01/25 12:00:48;;;;;;;42.05;15.13;;;11.10;58.50;;;;;;4948971;28;20072;-56
2022/01/25 12:03:26;;;;;;;44.35;15.30;;;11.10;58.90;;;;;;4948853;28;20133;-56
2022/01/25 12:05:59;;;;;;;29.77;13.77;;;11.00;60.20;;;;;;4950311;28;20085;-60
2022/01/25 12:08:40;;;;;;;36.97;13.10;;;11.10;60.00;;;;;;4965391;28;20083;-56
2022/01/25 12:11:39;;;;;;;33.50;15.50;;;11.10;60.80;;;;;;4952328;28;20519;-58
2022/01/25 12:14:16;;;;;;;39.85;14.05;;;11.10;61.70;;;;;;4948165;28;20127;-58
2022/01/25 12:16:52;;;;;;;31.58;13.15;;;11.10;62.50;;;;;;4935302;28;20079;-58
2022/01/25 12:19:59;;;;;;;27.30;12.18;;;11.00;63.70;;;;;;4947947;28;20075;-61
2022/01/25 12:22:40;;;;;;;27.40;12.27;;;10.90;64.70;;;;;;5000549;28;20450;-56
2022/01/25 12:25:25;;;;;;;21.75;11.63;;;10.80;66.00;;;;;;5038508;28;20477;-59
2022/01/25 12:28:02;;;;;;;30.20;12.07;;;10.80;67.10;;;;;;5039616;28;20061;-59
2022/01/25 12:30:33;;;;;;;26.73;12.13;;;11.00;67.40;;;;;;5039844;28;20108;-61
2022/01/25 12:33:15;;;;;;;26.23;11.95;;;11.00;67.20;;;;;;5038241;28;20087;-59
2022/01/25 12:35:52;;;;;;;29.77;11.57;;;10.90;67.10;;;;;;5038894;28;20070;-57
2022/01/25 12:38:24;;;;;;;30.80;15.45;;;10.90;67.40;;;;;;5037774;28;20081;-54
2022/01/25 12:41:09;;;;;;;29.42;13.57;;;11.00;67.80;;;;;;5036340;28;20415;-57
2022/01/25 12:43:53;;;;;;;27.98;13.07;;;11.00;67.80;;;;;;5057275;28;20093;-57
2022/01/25 12:46:26;;;;;;;33.72;13.23;;;11.00;68.10;;;;;;5039252;28;20559;-59
2022/01/25 12:48:58;;;;;;;25.20;11.80;;;11.00;68.20;;;;;;5038819;28;20099;-61
2022/01/25 12:51:30;;;;;;;31.92;11.65;;;11.00;68.60;;;;;;5039206;28;20098;-57
2022/01/25 12:53:59;;;;;;;26.00;11.25;;;10.90;69.20;;;;;;5028419;28;20085;-60
2022/01/25 12:56:30;;;;;;;21.58;10.77;;;10.90;69.60;;;;;;5056594;28;20080;-55
2022/01/25 12:59:17;;;;;;;31.33;11.77;;;10.80;69.70;;;;;;5041926;28;20160;-59
2022/01/25 13:01:45;;;;;;;21.95;11.40;;;10.70;70.40;;;;;;5039690;28;20077;-58
2022/01/25 13:04:12;;;;;;;30.08;12.07;;;10.80;70.70;;;;;;5055253;28;20089;-61
2022/01/25 13:06:44;;;;;;;24.52;12.40;;;10.70;70.40;;;;;;5007980;28;20077;-61
2022/01/25 13:09:20;;;;;;;30.08;13.00;;;10.70;70.70;;;;;;5024201;28;20137;-57
2022/01/25 13:17:02;;;;;;;24.45;11.35;;;10.50;71.30;;;;;;5059542;28;20073;-58
2022/01/25 13:19:34;;;;;;;26.67;12.00;;;10.60;71.70;;;;;;5041957;28;20076;-56
2022/01/25 13:22:07;;;;;;;28.00;11.95;;;10.70;71.70;;;;;;5022963;28;20215;-57
2022/01/25 13:24:47;;;;;;;27.60;11.90;;;10.70;71.40;;;;;;5025428;28;20089;-57
2022/01/25 13:27:17;;;;;;;28.60;11.90;;;10.70;72.00;;;;;;5041823;28;20076;-58
2022/01/25 13:32:42;;;;;;;40.45;11.73;;;10.50;73.20;;;;;;5062256;28;20111;-57
2022/01/25 13:35:24;;;;;;;30.52;11.95;;;10.50;72.30;;;;;;5042648;28;20070;-56
2022/01/25 13:38:02;;;;;;;25.02;11.85;;;10.50;72.20;;;;;;5027068;28;20068;-56
2022/01/25 13:41:19;;;;;;;33.40;12.65;;;10.40;72.70;;;;;;5041618;28;20080;-58
2022/01/25 13:45:57;;;;;;;28.58;12.32;;;10.40;72.90;;;;;;5061828;28;20613;-58
2022/01/25 13:48:26;;;;;;;37.50;13.65;;;10.30;73.20;;;;;;5028112;28;20481;-55
2022/01/25 13:50:58;;;;;;;37.33;12.32;;;10.30;73.90;;;;;;5026355;28;20136;-56
2022/01/25 13:53:26;;;;;;;34.17;13.27;;;10.40;74.00;;;;;;5046960;28;20074;-58
2022/01/25 13:55:57;;;;;;;31.40;12.60;;;10.30;74.20;;;;;;5059292;28;20065;-57
2022/01/25 13:58:27;;;;;;;32.83;13.90;;;10.30;74.90;;;;;;5041658;28;20167;-55
2022/01/25 14:00:56;;;;;;;35.90;13.73;;;10.20;75.20;;;;;;5044103;28;20561;-57
2022/01/25 14:03:38;;;;;;;45.30;15.00;;;10.30;76.00;;;;;;5010043;28;20123;-58
2022/01/25 14:06:23;;;;;;;44.45;17.20;;;10.20;76.20;;;;;;5058818;28;20473;-60
2022/01/25 14:08:51;;;;;;;40.95;16.95;;;10.20;76.40;;;;;;5040855;28;20550;-57
2022/01/25 14:22:51;;;;;;;54.50;23.38;;;10.20;77.60;;;;;;5059389;28;20165;-60
2022/01/25 14:25:39;;;;;;;53.25;23.85;;;10.10;78.40;;;;;;5040495;28;21504;-56
2022/01/25 14:28:15;;;;;;;55.33;23.08;;;10.10;78.80;;;;;;5043794;28;20077;-59
2022/01/25 14:30:45;;;;;;;52.47;23.90;;;10.10;79.30;;;;;;5043703;28;20097;-58
2022/01/25 14:33:14;;;;;;;47.75;22.85;;;10.00;79.00;;;;;;5055858;28;20521;-60
2022/01/25 14:35:49;;;;;;;47.38;20.48;;;9.90;79.40;;;;;;5042772;28;20116;-57
2022/01/25 14:38:21;;;;;;;43.40;18.73;;;10.10;79.70;;;;;;5024396;28;20092;-58
2022/01/25 14:41:18;;;;;;;44.03;18.00;;;10.10;78.90;;;;;;5041711;28;20134;-60
2022/01/25 14:43:49;;;;;;;41.70;17.08;;;10.00;78.60;;;;;;5052799;28;20103;-60
2022/01/25 14:46:19;;;;;;;48.88;16.05;;;10.00;78.30;;;;;;5040718;28;20073;-53
2022/01/25 14:48:58;;;;;;;45.13;14.05;;;10.00;79.10;;;;;;5041724;28;20074;-55
2022/01/25 14:51:55;;;;;;;37.88;13.57;;;10.10;78.70;;;;;;5029670;28;20107;-59
2022/01/25 14:54:22;;;;;;;47.85;14.35;;;10.10;78.10;;;;;;5017729;28;20080;-57
2022/01/25 14:56:53;;;;;;;27.85;10.02;;;10.00;77.70;;;;;;5064744;28;20077;-62
2022/01/25 14:59:26;;;;;;;32.92;11.73;;;10.00;77.50;;;;;;5063335;28;20147;-61
2022/01/25 15:02:00;;;;;;;37.60;12.07;;;10.00;78.30;;;;;;5028999;28;20089;-59
2022/01/25 15:04:31;;;;;;;32.55;12.18;;;10.00;78.20;;;;;;5038489;28;20113;-59
2022/01/25 15:06:58;;;;;;;44.88;12.20;;;10.10;77.90;;;;;;5064110;28;20088;-57
2022/01/25 15:09:25;;;;;;;39.00;10.82;;;10.10;77.40;;;;;;5028072;28;20138;-57
2022/01/25 15:11:52;;;;;;;;;;;10.10;76.80;;;;;;5064955;28;20535;-57
2022/01/25 15:14:21;;;;;;;;;;;10.10;77.10;;;;;;5047102;28;19961;-59